sensor_id;sensor_type;location;lat;lon;timestamp;temperature;humidity
18876;DHT22;9570;50.854;13.778;2022-08-19T00:00:17;21.90;99.90
18876;DHT22;9570;50.854;13.778;2022-08-19T00:02:43;21.90;99.90
18876;DHT22;9570;50.854;13.778;2022-08-19T00:05:12;21.70;99.90
18876;DHT22;9570;50.854;13.778;2022-08-19T00:07:38;21.60;99.90
18876;DHT22;9570;50.854;13.778;2022-08-19T00:10:06;21.70;99.90
18876;DHT22;9570;50.854;13.778;2022-08-19T00:12:32;21.60;99.90
18876;DHT22;9570;50.854;13.778;2022-08-19T00:14:58;21.60;99.90
18876;DHT22;9570;50.854;13.778;2022-08-19T00:17:24;21.50;99.90
18876;DHT22;9570;50.854;13.778;2022-08-19T00:19:49;21.60;99.90
18876;DHT22;9570;50.854;13.778;2022-08-19T00:22:15;21.70;99.90
18876;DHT22;9570;50.854;13.778;2022-08-19T00:24:43;21.80;99.90
18876;DHT22;9570;50.854;13.778;2022-08-19T00:27:09;21.80;99.90
18876;DHT22;9570;50.854;13.778;2022-08-19T00:29:34;21.90;99.90
18876;DHT22;9570;50.854;13.778;2022-08-19T00:32:00;21.70;99.90
18876;DHT22;9570;50.854;13.778;2022-08-19T00:34:25;21.80;99.90
18876;DHT22;9570;50.854;13.778;2022-08-19T00:36:53;21.60;99.90
18876;DHT22;9570;50.854;13.778;2022-08-19T00:39:19;21.60;99.90
18876;DHT22;9570;50.854;13.778;2022-08-19T00:41:45;21.70;99.90
18876;DHT22;9570;50.854;13.778;2022-08-19T00:44:17;21.60;99.90
18876;DHT22;9570;50.854;13.778;2022-08-19T00:46:46;21.60;99.90
18876;DHT22;9570;50.854;13.778;2022-08-19T00:49:16;21.70;99.90
18876;DHT22;9570;50.854;13.778;2022-08-19T00:51:45;21.60;99.90
18876;DHT22;9570;50.854;13.778;2022-08-19T00:54:12;21.70;99.90
18876;DHT22;9570;50.854;13.778;2022-08-19T00:56:38;21.60;99.90
18876;DHT22;9570;50.854;13.778;2022-08-19T00:59:05;21.70;99.90
18876;DHT22;9570;50.854;13.778;2022-08-19T01:01:38;21.60;99.90
18876;DHT22;9570;50.854;13.778;2022-08-19T01:04:05;21.50;99.90
18876;DHT22;9570;50.854;13.778;2022-08-19T01:06:31;21.60;99.90
18876;DHT22;9570;50.854;13.778;2022-08-19T01:08:58;21.70;99.90
18876;DHT22;9570;50.854;13.778;2022-08-19T01:11:24;21.70;99.90
18876;DHT22;9570;50.854;13.778;2022-08-19T01:13:53;21.50;99.90
18876;DHT22;9570;50.854;13.778;2022-08-19T01:16:21;21.60;99.90
18876;DHT22;9570;50.854;13.778;2022-08-19T01:18:48;21.60;99.90
18876;DHT22;9570;50.854;13.778;2022-08-19T01:21:31;21.60;99.90
18876;DHT22;9570;50.854;13.778;2022-08-19T01:23:57;21.60;99.90
18876;DHT22;9570;50.854;13.778;2022-08-19T01:26:24;21.60;99.90
18876;DHT22;9570;50.854;13.778;2022-08-19T01:28:53;21.60;99.90
18876;DHT22;9570;50.854;13.778;2022-08-19T01:31:23;21.60;99.90
18876;DHT22;9570;50.854;13.778;2022-08-19T01:33:50;21.50;99.90
18876;DHT22;9570;50.854;13.778;2022-08-19T01:36:24;21.50;99.90
18876;DHT22;9570;50.854;13.778;2022-08-19T01:38:51;21.40;99.90
18876;DHT22;9570;50.854;13.778;2022-08-19T01:41:17;21.40;99.90
18876;DHT22;9570;50.854;13.778;2022-08-19T01:43:43;21.30;99.90
18876;DHT22;9570;50.854;13.778;2022-08-19T01:46:10;21.20;99.90
18876;DHT22;9570;50.854;13.778;2022-08-19T01:48:38;21.10;99.90
18876;DHT22;9570;50.854;13.778;2022-08-19T01:51:03;21.20;99.90
18876;DHT22;9570;50.854;13.778;2022-08-19T01:53:30;21.20;99.90
18876;DHT22;9570;50.854;13.778;2022-08-19T01:55:55;21.20;99.90
18876;DHT22;9570;50.854;13.778;2022-08-19T01:58:26;21.10;99.90
18876;DHT22;9570;50.854;13.778;2022-08-19T02:00:54;21.30;99.90
18876;DHT22;9570;50.854;13.778;2022-08-19T02:03:20;21.10;99.90
18876;DHT22;9570;50.854;13.778;2022-08-19T02:05:45;21.20;99.90
18876;DHT22;9570;50.854;13.778;2022-08-19T02:08:11;21.20;99.90
18876;DHT22;9570;50.854;13.778;2022-08-19T02:10:41;21.20;99.90
18876;DHT22;9570;50.854;13.778;2022-08-19T02:13:07;21.10;99.90
18876;DHT22;9570;50.854;13.778;2022-08-19T02:15:33;21.20;99.90
18876;DHT22;9570;50.854;13.778;2022-08-19T02:17:58;21.30;99.90
18876;DHT22;9570;50.854;13.778;2022-08-19T02:20:24;21.30;99.90
18876;DHT22;9570;50.854;13.778;2022-08-19T02:22:50;21.20;99.90
18876;DHT22;9570;50.854;13.778;2022-08-19T02:25:15;21.30;99.90
18876;DHT22;9570;50.854;13.778;2022-08-19T02:27:41;21.10;99.90
18876;DHT22;9570;50.854;13.778;2022-08-19T02:30:11;21.10;99.90
18876;DHT22;9570;50.854;13.778;2022-08-19T02:32:37;21.10;99.90
18876;DHT22;9570;50.854;13.778;2022-08-19T02:35:04;21.00;99.90
18876;DHT22;9570;50.854;13.778;2022-08-19T02:37:29;21.10;99.90
18876;DHT22;9570;50.854;13.778;2022-08-19T02:40:13;21.10;99.90
18876;DHT22;9570;50.854;13.778;2022-08-19T02:42:40;21.10;99.90
18876;DHT22;9570;50.854;13.778;2022-08-19T02:45:06;21.20;99.90
18876;DHT22;9570;50.854;13.778;2022-08-19T02:47:33;21.10;99.90
18876;DHT22;9570;50.854;13.778;2022-08-19T02:50:00;21.20;99.90
18876;DHT22;9570;50.854;13.778;2022-08-19T02:52:26;21.40;99.90
18876;DHT22;9570;50.854;13.778;2022-08-19T02:54:52;21.20;99.90
18876;DHT22;9570;50.854;13.778;2022-08-19T02:57:17;21.20;99.90
18876;DHT22;9570;50.854;13.778;2022-08-19T02:59:43;21.10;99.90
18876;DHT22;9570;50.854;13.778;2022-08-19T03:02:08;21.30;99.90
18876;DHT22;9570;50.854;13.778;2022-08-19T03:04:34;21.40;99.90
18876;DHT22;9570;50.854;13.778;2022-08-19T03:06:59;21.30;99.90
18876;DHT22;9570;50.854;13.778;2022-08-19T03:09:25;21.40;99.90
18876;DHT22;9570;50.854;13.778;2022-08-19T03:11:50;21.40;99.90
18876;DHT22;9570;50.854;13.778;2022-08-19T03:14:16;21.30;99.90
18876;DHT22;9570;50.854;13.778;2022-08-19T03:16:48;21.10;99.90
18876;DHT22;9570;50.854;13.778;2022-08-19T03:19:17;21.10;99.90
18876;DHT22;9570;50.854;13.778;2022-08-19T03:21:44;21.20;99.90
18876;DHT22;9570;50.854;13.778;2022-08-19T03:24:10;21.10;99.90
18876;DHT22;9570;50.854;13.778;2022-08-19T03:26:45;21.20;99.90
18876;DHT22;9570;50.854;13.778;2022-08-19T03:29:12;21.20;99.90
18876;DHT22;9570;50.854;13.778;2022-08-19T03:31:40;21.10;99.90
18876;DHT22;9570;50.854;13.778;2022-08-19T03:34:06;21.10;99.90
18876;DHT22;9570;50.854;13.778;2022-08-19T03:36:32;21.10;99.90
18876;DHT22;9570;50.854;13.778;2022-08-19T03:38:59;21.10;99.90
18876;DHT22;9570;50.854;13.778;2022-08-19T03:41:31;21.20;99.90
18876;DHT22;9570;50.854;13.778;2022-08-19T03:43:58;21.10;99.90
18876;DHT22;9570;50.854;13.778;2022-08-19T03:46:26;21.10;99.90
18876;DHT22;9570;50.854;13.778;2022-08-19T03:48:54;21.10;99.90
18876;DHT22;9570;50.854;13.778;2022-08-19T03:51:22;21.10;99.90
18876;DHT22;9570;50.854;13.778;2022-08-19T03:53:48;21.00;99.90
18876;DHT22;9570;50.854;13.778;2022-08-19T03:56:14;21.00;99.90
18876;DHT22;9570;50.854;13.778;2022-08-19T03:58:40;21.00;99.90
18876;DHT22;9570;50.854;13.778;2022-08-19T04:01:17;21.10;99.90
18876;DHT22;9570;50.854;13.778;2022-08-19T04:03:45;21.10;99.90
18876;DHT22;9570;50.854;13.778;2022-08-19T04:08:39;21.20;99.90
18876;DHT22;9570;50.854;13.778;2022-08-19T04:11:07;21.10;99.90
18876;DHT22;9570;50.854;13.778;2022-08-19T04:13:33;21.20;99.90
18876;DHT22;9570;50.854;13.778;2022-08-19T04:15:59;21.20;99.90
18876;DHT22;9570;50.854;13.778;2022-08-19T04:18:24;21.20;99.90
18876;DHT22;9570;50.854;13.778;2022-08-19T04:20:50;21.10;99.90
18876;DHT22;9570;50.854;13.778;2022-08-19T04:23:16;21.10;99.90
18876;DHT22;9570;50.854;13.778;2022-08-19T04:25:43;21.00;99.90
18876;DHT22;9570;50.854;13.778;2022-08-19T04:28:10;21.00;99.90
18876;DHT22;9570;50.854;13.778;2022-08-19T04:30:41;21.10;99.90
18876;DHT22;9570;50.854;13.778;2022-08-19T04:33:07;21.00;99.90
18876;DHT22;9570;50.854;13.778;2022-08-19T04:35:41;21.10;99.90
18876;DHT22;9570;50.854;13.778;2022-08-19T04:38:08;21.10;99.90
18876;DHT22;9570;50.854;13.778;2022-08-19T04:40:39;21.10;99.90
18876;DHT22;9570;50.854;13.778;2022-08-19T04:43:23;21.00;99.90
18876;DHT22;9570;50.854;13.778;2022-08-19T04:45:48;21.10;99.90
18876;DHT22;9570;50.854;13.778;2022-08-19T04:48:14;21.10;99.90
18876;DHT22;9570;50.854;13.778;2022-08-19T04:50:42;21.20;99.90
18876;DHT22;9570;50.854;13.778;2022-08-19T04:53:08;21.20;99.90
18876;DHT22;9570;50.854;13.778;2022-08-19T04:55:33;21.30;99.90
18876;DHT22;9570;50.854;13.778;2022-08-19T04:58:00;21.20;99.90
18876;DHT22;9570;50.854;13.778;2022-08-19T05:00:27;21.20;99.90
18876;DHT22;9570;50.854;13.778;2022-08-19T05:02:53;21.10;99.90
18876;DHT22;9570;50.854;13.778;2022-08-19T05:05:18;21.10;99.90
18876;DHT22;9570;50.854;13.778;2022-08-19T05:07:45;21.00;99.90
18876;DHT22;9570;50.854;13.778;2022-08-19T05:10:10;20.90;99.90
18876;DHT22;9570;50.854;13.778;2022-08-19T05:12:36;21.00;99.90
18876;DHT22;9570;50.854;13.778;2022-08-19T05:15:04;20.80;99.90
18876;DHT22;9570;50.854;13.778;2022-08-19T05:17:29;20.90;99.90
18876;DHT22;9570;50.854;13.778;2022-08-19T05:19:56;20.80;99.90
18876;DHT22;9570;50.854;13.778;2022-08-19T05:22:41;21.00;99.90
18876;DHT22;9570;50.854;13.778;2022-08-19T05:25:12;20.80;99.90
18876;DHT22;9570;50.854;13.778;2022-08-19T05:27:38;20.90;99.90
18876;DHT22;9570;50.854;13.778;2022-08-19T05:30:04;20.90;99.90
18876;DHT22;9570;50.854;13.778;2022-08-19T05:32:30;21.00;99.90
18876;DHT22;9570;50.854;13.778;2022-08-19T05:34:56;21.10;99.90
18876;DHT22;9570;50.854;13.778;2022-08-19T05:37:22;21.20;99.90
18876;DHT22;9570;50.854;13.778;2022-08-19T05:39:47;21.10;99.90
18876;DHT22;9570;50.854;13.778;2022-08-19T05:42:14;20.90;99.90
18876;DHT22;9570;50.854;13.778;2022-08-19T05:44:42;20.90;99.90
18876;DHT22;9570;50.854;13.778;2022-08-19T05:47:12;20.80;99.90
18876;DHT22;9570;50.854;13.778;2022-08-19T05:49:38;20.90;99.90
18876;DHT22;9570;50.854;13.778;2022-08-19T05:52:10;21.10;99.90
18876;DHT22;9570;50.854;13.778;2022-08-19T05:54:37;21.10;99.90
18876;DHT22;9570;50.854;13.778;2022-08-19T05:57:05;21.00;99.90
18876;DHT22;9570;50.854;13.778;2022-08-19T05:59:31;21.10;99.90
18876;DHT22;9570;50.854;13.778;2022-08-19T06:01:57;21.00;99.90
18876;DHT22;9570;50.854;13.778;2022-08-19T06:04:23;21.20;99.90
18876;DHT22;9570;50.854;13.778;2022-08-19T06:06:50;21.00;99.90
18876;DHT22;9570;50.854;13.778;2022-08-19T06:09:17;21.10;99.90
18876;DHT22;9570;50.854;13.778;2022-08-19T06:11:50;21.10;99.90
18876;DHT22;9570;50.854;13.778;2022-08-19T06:14:20;21.00;99.90
18876;DHT22;9570;50.854;13.778;2022-08-19T06:16:47;21.00;99.90
18876;DHT22;9570;50.854;13.778;2022-08-19T06:19:15;21.00;99.90
18876;DHT22;9570;50.854;13.778;2022-08-19T06:21:43;21.00;99.90
18876;DHT22;9570;50.854;13.778;2022-08-19T06:24:13;21.00;99.90
18876;DHT22;9570;50.854;13.778;2022-08-19T06:26:42;21.00;99.90
18876;DHT22;9570;50.854;13.778;2022-08-19T06:29:10;21.00;99.90
18876;DHT22;9570;50.854;13.778;2022-08-19T06:31:36;20.90;99.90
18876;DHT22;9570;50.854;13.778;2022-08-19T06:34:03;20.90;99.90
18876;DHT22;9570;50.854;13.778;2022-08-19T06:36:35;21.00;99.90
18876;DHT22;9570;50.854;13.778;2022-08-19T06:39:04;20.90;99.90
18876;DHT22;9570;50.854;13.778;2022-08-19T06:41:31;21.00;99.90
18876;DHT22;9570;50.854;13.778;2022-08-19T06:43:56;21.10;99.90
18876;DHT22;9570;50.854;13.778;2022-08-19T06:46:22;21.20;99.90
18876;DHT22;9570;50.854;13.778;2022-08-19T06:48:48;21.10;99.90
18876;DHT22;9570;50.854;13.778;2022-08-19T06:51:15;21.00;99.90
18876;DHT22;9570;50.854;13.778;2022-08-19T06:53:47;20.90;99.90
18876;DHT22;9570;50.854;13.778;2022-08-19T06:56:15;20.80;99.90
18876;DHT22;9570;50.854;13.778;2022-08-19T06:58:41;20.80;99.90
18876;DHT22;9570;50.854;13.778;2022-08-19T07:01:07;20.80;99.90
18876;DHT22;9570;50.854;13.778;2022-08-19T07:03:34;20.80;99.90
18876;DHT22;9570;50.854;13.778;2022-08-19T07:06:06;20.80;99.90
18876;DHT22;9570;50.854;13.778;2022-08-19T07:08:33;20.90;99.90
18876;DHT22;9570;50.854;13.778;2022-08-19T07:11:01;20.80;99.90
18876;DHT22;9570;50.854;13.778;2022-08-19T07:13:26;20.80;99.90
18876;DHT22;9570;50.854;13.778;2022-08-19T07:15:52;20.80;99.90
18876;DHT22;9570;50.854;13.778;2022-08-19T07:18:19;20.70;99.90
18876;DHT22;9570;50.854;13.778;2022-08-19T07:20:45;20.80;99.90
18876;DHT22;9570;50.854;13.778;2022-08-19T07:23:11;20.80;99.90
18876;DHT22;9570;50.854;13.778;2022-08-19T07:25:37;20.90;99.90
18876;DHT22;9570;50.854;13.778;2022-08-19T07:28:04;20.90;99.90
18876;DHT22;9570;50.854;13.778;2022-08-19T07:30:30;21.00;99.90
18876;DHT22;9570;50.854;13.778;2022-08-19T07:32:55;21.00;99.90
18876;DHT22;9570;50.854;13.778;2022-08-19T07:35:21;21.10;99.90
18876;DHT22;9570;50.854;13.778;2022-08-19T07:37:47;21.20;99.90
18876;DHT22;9570;50.854;13.778;2022-08-19T07:40:13;21.30;99.90
18876;DHT22;9570;50.854;13.778;2022-08-19T07:42:38;21.30;99.90
18876;DHT22;9570;50.854;13.778;2022-08-19T07:45:06;21.40;99.90
18876;DHT22;9570;50.854;13.778;2022-08-19T07:47:32;21.50;99.90
18876;DHT22;9570;50.854;13.778;2022-08-19T07:49:58;21.40;99.90
18876;DHT22;9570;50.854;13.778;2022-08-19T07:52:23;21.50;99.90
18876;DHT22;9570;50.854;13.778;2022-08-19T07:54:48;21.60;99.90
18876;DHT22;9570;50.854;13.778;2022-08-19T07:57:15;21.70;99.90
18876;DHT22;9570;50.854;13.778;2022-08-19T07:59:40;21.70;99.90
18876;DHT22;9570;50.854;13.778;2022-08-19T08:02:06;21.70;99.90
18876;DHT22;9570;50.854;13.778;2022-08-19T08:04:31;21.80;99.90
18876;DHT22;9570;50.854;13.778;2022-08-19T08:07:16;21.90;99.90
18876;DHT22;9570;50.854;13.778;2022-08-19T08:10:00;21.70;99.90
18876;DHT22;9570;50.854;13.778;2022-08-19T08:12:33;21.70;99.90
18876;DHT22;9570;50.854;13.778;2022-08-19T08:15:02;21.70;99.90
18876;DHT22;9570;50.854;13.778;2022-08-19T08:17:30;21.90;99.90
18876;DHT22;9570;50.854;13.778;2022-08-19T08:19:58;21.80;99.90
18876;DHT22;9570;50.854;13.778;2022-08-19T08:22:24;21.90;99.90
18876;DHT22;9570;50.854;13.778;2022-08-19T08:25:17;22.00;99.90
18876;DHT22;9570;50.854;13.778;2022-08-19T08:27:45;21.80;99.90
18876;DHT22;9570;50.854;13.778;2022-08-19T08:30:17;21.70;99.90
18876;DHT22;9570;50.854;13.778;2022-08-19T08:32:43;21.70;99.90
18876;DHT22;9570;50.854;13.778;2022-08-19T08:35:12;21.90;99.90
18876;DHT22;9570;50.854;13.778;2022-08-19T08:37:38;22.00;99.90
18876;DHT22;9570;50.854;13.778;2022-08-19T08:40:15;22.00;99.90
18876;DHT22;9570;50.854;13.778;2022-08-19T08:42:50;22.00;99.90
18876;DHT22;9570;50.854;13.778;2022-08-19T08:45:18;22.10;99.90
18876;DHT22;9570;50.854;13.778;2022-08-19T08:47:47;22.10;99.90
18876;DHT22;9570;50.854;13.778;2022-08-19T08:50:19;22.10;99.90
18876;DHT22;9570;50.854;13.778;2022-08-19T08:52:50;22.10;99.90
18876;DHT22;9570;50.854;13.778;2022-08-19T08:55:19;22.10;99.90
18876;DHT22;9570;50.854;13.778;2022-08-19T09:00:19;21.60;99.90
18876;DHT22;9570;50.854;13.778;2022-08-19T09:02:46;21.60;99.90
18876;DHT22;9570;50.854;13.778;2022-08-19T09:05:13;21.70;99.90
18876;DHT22;9570;50.854;13.778;2022-08-19T09:07:51;21.80;99.90
18876;DHT22;9570;50.854;13.778;2022-08-19T09:10:40;21.80;99.90
18876;DHT22;9570;50.854;13.778;2022-08-19T09:13:32;21.70;99.90
18876;DHT22;9570;50.854;13.778;2022-08-19T09:16:07;21.80;99.90
18876;DHT22;9570;50.854;13.778;2022-08-19T09:18:44;21.70;99.90
18876;DHT22;9570;50.854;13.778;2022-08-19T09:21:13;21.80;99.90
18876;DHT22;9570;50.854;13.778;2022-08-19T09:23:39;21.80;99.90
18876;DHT22;9570;50.854;13.778;2022-08-19T09:26:17;21.40;99.90
18876;DHT22;9570;50.854;13.778;2022-08-19T09:28:44;21.50;99.90
18876;DHT22;9570;50.854;13.778;2022-08-19T09:31:16;21.50;99.90
18876;DHT22;9570;50.854;13.778;2022-08-19T09:33:42;21.60;99.90
18876;DHT22;9570;50.854;13.778;2022-08-19T09:36:13;21.70;99.90
18876;DHT22;9570;50.854;13.778;2022-08-19T09:38:39;21.70;99.90
18876;DHT22;9570;50.854;13.778;2022-08-19T09:41:08;21.60;99.90
18876;DHT22;9570;50.854;13.778;2022-08-19T09:43:34;21.60;99.90
18876;DHT22;9570;50.854;13.778;2022-08-19T09:46:05;21.70;99.90
18876;DHT22;9570;50.854;13.778;2022-08-19T09:48:36;21.80;99.90
18876;DHT22;9570;50.854;13.778;2022-08-19T09:51:10;21.80;99.90
18876;DHT22;9570;50.854;13.778;2022-08-19T09:53:37;21.80;99.90
18876;DHT22;9570;50.854;13.778;2022-08-19T09:56:04;21.80;99.90
18876;DHT22;9570;50.854;13.778;2022-08-19T09:58:30;22.00;99.90
18876;DHT22;9570;50.854;13.778;2022-08-19T10:00:57;22.10;99.90
18876;DHT22;9570;50.854;13.778;2022-08-19T10:03:23;22.20;99.90
18876;DHT22;9570;50.854;13.778;2022-08-19T10:05:49;22.10;99.90
18876;DHT22;9570;50.854;13.778;2022-08-19T10:08:23;22.10;99.90
18876;DHT22;9570;50.854;13.778;2022-08-19T10:10:51;22.10;99.90
18876;DHT22;9570;50.854;13.778;2022-08-19T10:13:19;22.00;99.90
18876;DHT22;9570;50.854;13.778;2022-08-19T10:15:47;22.10;99.90
18876;DHT22;9570;50.854;13.778;2022-08-19T10:18:15;22.00;99.90
18876;DHT22;9570;50.854;13.778;2022-08-19T10:20:43;22.20;99.90
18876;DHT22;9570;50.854;13.778;2022-08-19T10:23:08;22.30;99.90
18876;DHT22;9570;50.854;13.778;2022-08-19T10:25:34;22.10;99.90
18876;DHT22;9570;50.854;13.778;2022-08-19T10:28:00;22.10;99.90
18876;DHT22;9570;50.854;13.778;2022-08-19T10:30:25;22.30;99.90
18876;DHT22;9570;50.854;13.778;2022-08-19T10:32:51;22.10;99.90
18876;DHT22;9570;50.854;13.778;2022-08-19T10:35:16;22.20;99.90
18876;DHT22;9570;50.854;13.778;2022-08-19T10:37:42;22.30;99.90
18876;DHT22;9570;50.854;13.778;2022-08-19T10:40:08;22.30;99.90
18876;DHT22;9570;50.854;13.778;2022-08-19T10:42:35;22.30;99.90
18876;DHT22;9570;50.854;13.778;2022-08-19T10:45:02;22.30;99.90
18876;DHT22;9570;50.854;13.778;2022-08-19T10:47:28;22.20;99.90
18876;DHT22;9570;50.854;13.778;2022-08-19T10:49:54;22.10;99.90
18876;DHT22;9570;50.854;13.778;2022-08-19T10:52:44;22.00;99.90
18876;DHT22;9570;50.854;13.778;2022-08-19T10:55:10;22.00;99.90
18876;DHT22;9570;50.854;13.778;2022-08-19T10:57:55;21.90;99.90
18876;DHT22;9570;50.854;13.778;2022-08-19T11:00:21;21.80;99.90
18876;DHT22;9570;50.854;13.778;2022-08-19T11:02:48;21.90;99.90
18876;DHT22;9570;50.854;13.778;2022-08-19T11:05:13;22.10;99.90
18876;DHT22;9570;50.854;13.778;2022-08-19T11:07:40;22.10;99.90
18876;DHT22;9570;50.854;13.778;2022-08-19T11:10:07;22.10;99.90
18876;DHT22;9570;50.854;13.778;2022-08-19T11:12:33;22.10;99.90
18876;DHT22;9570;50.854;13.778;2022-08-19T11:14:59;22.10;99.90
18876;DHT22;9570;50.854;13.778;2022-08-19T11:17:24;22.20;99.90
18876;DHT22;9570;50.854;13.778;2022-08-19T11:19:50;22.30;99.90
18876;DHT22;9570;50.854;13.778;2022-08-19T11:22:15;22.40;99.90
18876;DHT22;9570;50.854;13.778;2022-08-19T11:24:42;22.40;99.90
18876;DHT22;9570;50.854;13.778;2022-08-19T11:27:09;22.20;99.90
18876;DHT22;9570;50.854;13.778;2022-08-19T11:29:37;22.40;99.90
18876;DHT22;9570;50.854;13.778;2022-08-19T11:32:06;22.50;99.90
18876;DHT22;9570;50.854;13.778;2022-08-19T11:34:32;22.30;99.90
18876;DHT22;9570;50.854;13.778;2022-08-19T11:36:57;22.30;99.90
18876;DHT22;9570;50.854;13.778;2022-08-19T11:39:26;22.50;99.90
18876;DHT22;9570;50.854;13.778;2022-08-19T11:41:52;22.60;99.90
18876;DHT22;9570;50.854;13.778;2022-08-19T11:44:17;22.70;99.90
18876;DHT22;9570;50.854;13.778;2022-08-19T11:46:44;22.70;99.90
18876;DHT22;9570;50.854;13.778;2022-08-19T11:49:13;22.80;99.90
18876;DHT22;9570;50.854;13.778;2022-08-19T11:51:39;22.80;99.90
18876;DHT22;9570;50.854;13.778;2022-08-19T11:54:07;22.70;99.90
18876;DHT22;9570;50.854;13.778;2022-08-19T11:56:33;22.50;99.90
18876;DHT22;9570;50.854;13.778;2022-08-19T11:59:00;22.50;99.90
18876;DHT22;9570;50.854;13.778;2022-08-19T12:01:26;22.30;99.90
18876;DHT22;9570;50.854;13.778;2022-08-19T12:03:53;22.40;99.90
18876;DHT22;9570;50.854;13.778;2022-08-19T12:06:21;22.60;99.90
18876;DHT22;9570;50.854;13.778;2022-08-19T12:08:52;22.70;99.90
18876;DHT22;9570;50.854;13.778;2022-08-19T12:11:19;22.50;99.90
18876;DHT22;9570;50.854;13.778;2022-08-19T12:13:44;22.20;99.90
18876;DHT22;9570;50.854;13.778;2022-08-19T12:16:18;22.20;99.90
18876;DHT22;9570;50.854;13.778;2022-08-19T12:18:44;22.20;99.90
18876;DHT22;9570;50.854;13.778;2022-08-19T12:21:12;22.30;99.90
18876;DHT22;9570;50.854;13.778;2022-08-19T12:23:39;22.50;99.90
18876;DHT22;9570;50.854;13.778;2022-08-19T12:26:05;22.60;99.90
18876;DHT22;9570;50.854;13.778;2022-08-19T12:28:30;22.80;99.90
18876;DHT22;9570;50.854;13.778;2022-08-19T12:30:57;22.90;99.90
18876;DHT22;9570;50.854;13.778;2022-08-19T12:33:23;23.00;99.90
18876;DHT22;9570;50.854;13.778;2022-08-19T12:35:51;23.00;99.90
18876;DHT22;9570;50.854;13.778;2022-08-19T12:38:17;22.90;99.90
18876;DHT22;9570;50.854;13.778;2022-08-19T12:40:46;22.90;99.90
18876;DHT22;9570;50.854;13.778;2022-08-19T12:43:13;22.90;99.90
18876;DHT22;9570;50.854;13.778;2022-08-19T12:45:41;22.90;99.90
18876;DHT22;9570;50.854;13.778;2022-08-19T12:48:08;22.80;99.90
18876;DHT22;9570;50.854;13.778;2022-08-19T12:50:33;22.70;99.90
18876;DHT22;9570;50.854;13.778;2022-08-19T12:52:59;22.70;99.90
18876;DHT22;9570;50.854;13.778;2022-08-19T12:55:25;22.90;99.90
18876;DHT22;9570;50.854;13.778;2022-08-19T12:57:50;22.90;99.90
18876;DHT22;9570;50.854;13.778;2022-08-19T13:00:18;23.00;99.90
18876;DHT22;9570;50.854;13.778;2022-08-19T13:02:47;22.70;99.90
18876;DHT22;9570;50.854;13.778;2022-08-19T13:05:17;22.60;99.90
18876;DHT22;9570;50.854;13.778;2022-08-19T13:07:45;22.80;99.90
18876;DHT22;9570;50.854;13.778;2022-08-19T13:10:12;22.80;99.90
18876;DHT22;9570;50.854;13.778;2022-08-19T13:12:39;22.90;99.90
18876;DHT22;9570;50.854;13.778;2022-08-19T13:15:05;22.80;99.90
18876;DHT22;9570;50.854;13.778;2022-08-19T13:17:30;22.80;99.90
18876;DHT22;9570;50.854;13.778;2022-08-19T13:19:56;22.80;99.90
18876;DHT22;9570;50.854;13.778;2022-08-19T13:22:21;22.80;99.90
18876;DHT22;9570;50.854;13.778;2022-08-19T13:24:47;22.90;99.90
18876;DHT22;9570;50.854;13.778;2022-08-19T13:27:13;23.00;99.90
18876;DHT22;9570;50.854;13.778;2022-08-19T13:29:40;23.00;99.90
18876;DHT22;9570;50.854;13.778;2022-08-19T13:32:24;22.90;99.90
18876;DHT22;9570;50.854;13.778;2022-08-19T13:35:09;22.60;99.90
18876;DHT22;9570;50.854;13.778;2022-08-19T13:37:34;22.40;99.90
18876;DHT22;9570;50.854;13.778;2022-08-19T13:40:12;22.50;99.90
18876;DHT22;9570;50.854;13.778;2022-08-19T13:42:41;22.70;99.90
18876;DHT22;9570;50.854;13.778;2022-08-19T13:45:07;22.80;99.90
18876;DHT22;9570;50.854;13.778;2022-08-19T13:47:34;22.90;99.90
18876;DHT22;9570;50.854;13.778;2022-08-19T13:50:03;22.90;99.90
18876;DHT22;9570;50.854;13.778;2022-08-19T13:52:29;22.70;99.90
18876;DHT22;9570;50.854;13.778;2022-08-19T13:54:54;22.70;99.90
18876;DHT22;9570;50.854;13.778;2022-08-19T13:57:20;22.60;99.90
18876;DHT22;9570;50.854;13.778;2022-08-19T13:59:45;22.70;99.90
18876;DHT22;9570;50.854;13.778;2022-08-19T14:02:11;22.90;99.90
18876;DHT22;9570;50.854;13.778;2022-08-19T14:04:36;23.00;99.90
18876;DHT22;9570;50.854;13.778;2022-08-19T14:07:03;23.00;99.90
18876;DHT22;9570;50.854;13.778;2022-08-19T14:09:29;22.90;99.90
18876;DHT22;9570;50.854;13.778;2022-08-19T14:11:55;22.80;99.90
18876;DHT22;9570;50.854;13.778;2022-08-19T14:14:20;22.50;99.90
18876;DHT22;9570;50.854;13.778;2022-08-19T14:16:46;22.40;99.90
18876;DHT22;9570;50.854;13.778;2022-08-19T14:19:12;22.50;99.90
18876;DHT22;9570;50.854;13.778;2022-08-19T14:21:37;22.40;99.90
18876;DHT22;9570;50.854;13.778;2022-08-19T14:24:04;22.40;99.90
18876;DHT22;9570;50.854;13.778;2022-08-19T14:26:30;22.40;99.90
18876;DHT22;9570;50.854;13.778;2022-08-19T14:28:56;22.30;99.90
18876;DHT22;9570;50.854;13.778;2022-08-19T14:31:22;22.10;99.90
18876;DHT22;9570;50.854;13.778;2022-08-19T14:33:49;22.20;99.90
18876;DHT22;9570;50.854;13.778;2022-08-19T14:36:16;22.30;99.90
18876;DHT22;9570;50.854;13.778;2022-08-19T14:38:42;22.30;99.90
18876;DHT22;9570;50.854;13.778;2022-08-19T14:41:13;22.20;99.90
18876;DHT22;9570;50.854;13.778;2022-08-19T14:43:41;22.10;99.90
18876;DHT22;9570;50.854;13.778;2022-08-19T14:46:06;22.20;99.90
18876;DHT22;9570;50.854;13.778;2022-08-19T14:48:33;22.30;99.90
18876;DHT22;9570;50.854;13.778;2022-08-19T14:50:58;22.40;99.90
18876;DHT22;9570;50.854;13.778;2022-08-19T14:53:24;22.20;99.90
18876;DHT22;9570;50.854;13.778;2022-08-19T14:55:49;22.00;99.90
18876;DHT22;9570;50.854;13.778;2022-08-19T14:58:15;22.00;99.90
18876;DHT22;9570;50.854;13.778;2022-08-19T15:00:40;22.00;99.90
18876;DHT22;9570;50.854;13.778;2022-08-19T15:03:06;22.00;99.90
18876;DHT22;9570;50.854;13.778;2022-08-19T15:05:31;21.80;99.90
18876;DHT22;9570;50.854;13.778;2022-08-19T15:07:57;21.70;99.90
18876;DHT22;9570;50.854;13.778;2022-08-19T15:10:22;21.70;99.90
18876;DHT22;9570;50.854;13.778;2022-08-19T15:12:49;21.70;99.90
18876;DHT22;9570;50.854;13.778;2022-08-19T15:15:15;21.80;99.90
18876;DHT22;9570;50.854;13.778;2022-08-19T15:17:43;21.90;99.90
18876;DHT22;9570;50.854;13.778;2022-08-19T15:20:10;21.90;99.90
18876;DHT22;9570;50.854;13.778;2022-08-19T15:22:36;21.90;99.90
18876;DHT22;9570;50.854;13.778;2022-08-19T15:25:03;22.00;99.90
18876;DHT22;9570;50.854;13.778;2022-08-19T15:27:28;22.20;99.90
18876;DHT22;9570;50.854;13.778;2022-08-19T15:29:54;22.20;99.90
18876;DHT22;9570;50.854;13.778;2022-08-19T15:32:19;22.20;99.90
18876;DHT22;9570;50.854;13.778;2022-08-19T15:34:45;22.10;99.90
18876;DHT22;9570;50.854;13.778;2022-08-19T15:37:14;22.10;99.90